createdAt,value
2018-12-07T00:01:40.855Z,12.01
2018-12-07T00:04:16.373Z,11.95
2018-12-07T00:06:46.644Z,12.01
2018-12-07T00:09:15.758Z,11.95
2018-12-07T00:11:45.917Z,11.95
2018-12-07T00:14:14.720Z,11.92
2018-12-07T00:16:55.172Z,11.90
2018-12-07T00:19:27.682Z,11.97
2018-12-07T00:21:57.898Z,12.09
2018-12-07T00:24:27.908Z,12.03
2018-12-07T00:27:07.578Z,12.08
2018-12-07T00:29:42.662Z,12.07
2018-12-07T00:32:11.670Z,12.06
2018-12-07T00:34:44.079Z,12.10
2018-12-07T00:37:16.150Z,12.16
2018-12-07T00:39:44.234Z,12.20
2018-12-07T00:42:13.229Z,12.21
2018-12-07T00:44:41.406Z,12.21
2018-12-07T00:47:09.503Z,12.21
2018-12-07T00:49:38.104Z,12.17
2018-12-07T00:52:06.255Z,12.19
2018-12-07T00:54:34.435Z,12.17
2018-12-07T00:57:02.518Z,12.19
2018-12-07T00:59:30.611Z,12.19
2018-12-07T01:01:58.683Z,12.22
2018-12-07T01:04:26.807Z,12.26
2018-12-07T01:06:54.973Z,12.27
2018-12-07T01:09:23.069Z,12.29
2018-12-07T01:11:51.168Z,12.27
2018-12-07T01:14:19.334Z,12.26
2018-12-07T01:16:47.544Z,12.30
2018-12-07T01:19:15.635Z,12.26
2018-12-07T01:21:43.720Z,12.24
2018-12-07T01:24:11.809Z,12.30
2018-12-07T01:26:39.958Z,12.37
2018-12-07T01:29:08.150Z,12.32
2018-12-07T01:31:36.314Z,12.33
2018-12-07T01:34:04.398Z,12.35
2018-12-07T01:36:32.511Z,12.35
2018-12-07T01:39:00.758Z,12.33
2018-12-07T01:41:28.849Z,12.36
2018-12-07T01:43:57.007Z,12.38
2018-12-07T01:46:25.189Z,12.32
2018-12-07T01:48:53.290Z,12.36
2018-12-07T01:51:21.488Z,12.40
2018-12-07T01:53:49.605Z,12.43
2018-12-07T01:56:17.746Z,12.43
2018-12-07T01:58:45.905Z,12.52
2018-12-07T02:01:13.994Z,12.47
2018-12-07T02:03:42.166Z,12.43
2018-12-07T02:06:10.349Z,12.44
2018-12-07T02:08:38.565Z,12.40
2018-12-07T02:11:06.692Z,12.44
2018-12-07T02:13:34.972Z,12.49
2018-12-07T02:16:03.192Z,12.46
2018-12-07T02:18:31.425Z,12.45
2018-12-07T02:20:59.594Z,12.47
2018-12-07T02:23:27.681Z,12.54
2018-12-07T02:25:55.770Z,12.62
2018-12-07T02:28:23.898Z,12.58
2018-12-07T02:30:51.986Z,12.56
2018-12-07T02:33:20.094Z,12.53
2018-12-07T02:35:48.246Z,12.52
2018-12-07T02:38:16.414Z,12.56
2018-12-07T02:40:44.628Z,12.52
2018-12-07T02:43:12.840Z,12.53
2018-12-07T02:45:41.115Z,12.52
2018-12-07T02:48:09.292Z,12.54
2018-12-07T02:50:37.489Z,12.53
2018-12-07T02:53:05.639Z,12.58
2018-12-07T02:55:33.819Z,12.58
2018-12-07T02:58:02.020Z,12.53
2018-12-07T03:00:30.214Z,12.54
2018-12-07T03:02:58.500Z,12.59
2018-12-07T03:05:26.676Z,12.62
2018-12-07T03:07:54.902Z,12.52
2018-12-07T03:10:22.998Z,12.52
2018-12-07T03:12:51.178Z,12.51
2018-12-07T03:15:19.414Z,12.50
2018-12-07T03:17:47.568Z,12.54
2018-12-07T03:20:15.651Z,12.49
2018-12-07T03:22:43.744Z,12.49
2018-12-07T03:25:11.970Z,12.54
2018-12-07T03:27:40.121Z,12.57
2018-12-07T03:30:08.290Z,12.54
2018-12-07T03:32:36.429Z,12.50
2018-12-07T03:35:04.838Z,12.60
2018-12-07T03:37:33.074Z,12.57
2018-12-07T03:40:01.218Z,12.56
2018-12-07T03:42:29.334Z,12.57
2018-12-07T03:44:57.420Z,12.58
2018-12-07T03:47:25.598Z,12.68
2018-12-07T03:49:53.691Z,12.61
2018-12-07T03:52:21.877Z,12.57
2018-12-07T03:54:50.014Z,12.60
2018-12-07T03:57:18.178Z,12.58
2018-12-07T03:59:46.277Z,12.52
2018-12-07T04:02:14.394Z,12.58
2018-12-07T04:04:42.515Z,12.57
2018-12-07T04:07:10.756Z,12.61
2018-12-07T04:09:38.853Z,12.66
2018-12-07T04:12:07.025Z,12.62
2018-12-07T04:14:35.220Z,12.63
2018-12-07T04:17:03.390Z,12.61
2018-12-07T04:19:31.484Z,12.70
2018-12-07T04:21:59.566Z,12.77
2018-12-07T04:24:27.686Z,12.68
2018-12-07T04:26:55.781Z,12.62
2018-12-07T04:29:23.884Z,12.63
2018-12-07T04:31:52.167Z,12.62
2018-12-07T04:34:20.517Z,12.63
2018-12-07T04:36:48.632Z,12.69
2018-12-07T04:39:16.796Z,12.68
2018-12-07T04:41:44.956Z,12.68
2018-12-07T04:44:13.019Z,12.78
2018-12-07T04:46:41.123Z,12.74
2018-12-07T04:49:09.295Z,12.68
2018-12-07T04:51:37.499Z,12.70
2018-12-07T04:54:05.631Z,12.64
2018-12-07T04:56:33.888Z,12.66
2018-12-07T04:59:01.963Z,12.71
2018-12-07T05:01:30.171Z,12.61
2018-12-07T05:03:58.234Z,12.58
2018-12-07T05:06:26.343Z,12.53
2018-12-07T05:08:54.561Z,12.47
2018-12-07T05:11:22.847Z,12.40
2018-12-07T05:13:51.003Z,12.47
2018-12-07T05:16:19.243Z,12.33
2018-12-07T05:18:47.470Z,12.31
2018-12-07T05:21:15.564Z,12.29
2018-12-07T05:23:43.721Z,12.38
2018-12-07T05:26:11.833Z,12.43
2018-12-07T05:28:39.923Z,12.35
2018-12-07T05:31:08.072Z,12.23
2018-12-07T05:33:36.241Z,12.33
2018-12-07T05:36:04.482Z,12.30
2018-12-07T05:38:32.670Z,12.38
2018-12-07T05:41:00.944Z,12.34
2018-12-07T05:43:29.135Z,12.35
2018-12-07T05:45:57.424Z,12.31
2018-12-07T05:48:25.675Z,12.35
2018-12-07T05:50:53.794Z,12.43
2018-12-07T05:53:21.886Z,12.49
2018-12-07T05:55:50.005Z,12.42
2018-12-07T05:58:18.065Z,12.41
2018-12-07T06:00:46.222Z,12.37
2018-12-07T06:03:14.394Z,12.39
2018-12-07T06:05:42.570Z,12.43
2018-12-07T06:08:10.650Z,12.36
2018-12-07T06:10:38.751Z,12.30
2018-12-07T06:13:06.934Z,12.29
2018-12-07T06:15:35.162Z,12.32
2018-12-07T06:18:03.350Z,12.31
2018-12-07T06:20:31.559Z,12.27
2018-12-07T06:22:59.742Z,12.33
2018-12-07T06:25:27.817Z,12.36
2018-12-07T06:27:55.893Z,12.30
2018-12-07T06:30:23.969Z,12.26
2018-12-07T06:32:52.062Z,12.27
2018-12-07T06:35:26.762Z,12.25
2018-12-07T06:37:54.854Z,12.27
2018-12-07T06:40:23.006Z,12.27
2018-12-07T06:42:51.088Z,12.26
2018-12-07T06:45:19.199Z,12.28
2018-12-07T06:47:47.297Z,12.39
2018-12-07T06:50:15.497Z,12.31
2018-12-07T06:52:43.718Z,12.37
2018-12-07T06:55:11.871Z,12.27
2018-12-07T06:57:39.953Z,12.34
2018-12-07T07:00:08.547Z,12.29
2018-12-07T07:02:36.722Z,12.22
2018-12-07T07:05:05.155Z,12.16
2018-12-07T07:07:33.252Z,12.16
2018-12-07T07:10:01.341Z,12.21
2018-12-07T07:12:29.414Z,12.08
2018-12-07T07:14:57.498Z,11.91
2018-12-07T07:17:25.658Z,11.94
2018-12-07T07:19:53.739Z,11.84
2018-12-07T07:22:21.979Z,11.86
2018-12-07T07:24:50.066Z,11.82
2018-12-07T07:27:18.173Z,11.83
2018-12-07T07:29:46.277Z,11.77
2018-12-07T07:32:14.361Z,11.76
2018-12-07T07:34:42.463Z,11.73
2018-12-07T07:37:10.546Z,11.73
2018-12-07T07:39:38.623Z,11.75
2018-12-07T07:42:06.710Z,11.79
2018-12-07T07:44:34.899Z,11.67
2018-12-07T07:47:03.001Z,11.58
2018-12-07T07:49:31.179Z,11.57
2018-12-07T07:51:59.267Z,11.57
2018-12-07T07:54:27.375Z,11.55
2018-12-07T07:56:55.470Z,11.63
2018-12-07T07:59:23.564Z,11.57
2018-12-07T08:01:51.657Z,11.49
2018-12-07T08:04:19.829Z,11.46
2018-12-07T08:06:47.919Z,11.52
2018-12-07T08:09:18.654Z,11.54
2018-12-07T08:11:50.450Z,11.56
2018-12-07T08:14:18.537Z,11.63
2018-12-07T08:16:46.686Z,11.60
2018-12-07T08:19:14.926Z,11.67
2018-12-07T08:21:43.017Z,11.63
2018-12-07T08:24:11.090Z,11.71
2018-12-07T08:26:39.337Z,11.60
2018-12-07T08:29:07.429Z,11.60
2018-12-07T08:31:35.526Z,11.56
2018-12-07T08:34:03.682Z,11.66
2018-12-07T08:36:31.778Z,11.63
2018-12-07T08:38:59.898Z,11.69
2018-12-07T08:41:28.007Z,11.58
2018-12-07T08:43:56.081Z,11.64
2018-12-07T08:46:24.259Z,11.59
2018-12-07T08:48:52.511Z,11.65
2018-12-07T08:51:20.599Z,11.59
2018-12-07T08:53:48.761Z,11.68
2018-12-07T08:56:16.979Z,11.76
2018-12-07T08:58:46.298Z,11.79
2018-12-07T09:01:14.474Z,11.84
2018-12-07T09:03:42.693Z,11.78
2018-12-07T09:06:10.789Z,11.84
2018-12-07T09:08:38.959Z,11.93
2018-12-07T09:11:07.218Z,11.94
2018-12-07T09:13:35.285Z,12.02
2018-12-07T09:16:03.467Z,12.01
2018-12-07T09:18:31.550Z,11.97
2018-12-07T09:20:59.676Z,12.01
2018-12-07T09:23:27.839Z,12.01
2018-12-07T09:25:55.928Z,11.95
2018-12-07T09:28:24.086Z,11.97
2018-12-07T09:30:52.166Z,12.02
2018-12-07T09:33:20.390Z,12.07
2018-12-07T09:35:48.490Z,12.09
2018-12-07T09:38:16.630Z,12.11
2018-12-07T09:40:44.814Z,12.13
2018-12-07T09:43:12.919Z,11.99
2018-12-07T09:45:41.005Z,11.92
2018-12-07T09:48:09.106Z,11.89
2018-12-07T09:50:37.198Z,11.78
2018-12-07T09:53:05.378Z,11.86
2018-12-07T09:55:33.547Z,11.83
2018-12-07T09:58:01.751Z,11.80
2018-12-07T10:00:29.859Z,11.88
2018-12-07T10:02:58.067Z,11.86
2018-12-07T10:05:26.717Z,11.98
2018-12-07T10:07:54.815Z,11.95
2018-12-07T10:10:22.909Z,11.92
2018-12-07T10:12:51.030Z,11.83
2018-12-07T10:15:19.601Z,11.88
2018-12-07T10:17:47.725Z,11.96
2018-12-07T10:20:15.959Z,11.87
2018-12-07T10:22:44.062Z,11.94
2018-12-07T10:25:12.207Z,12.02
2018-12-07T10:27:40.289Z,12.08
2018-12-07T10:30:08.437Z,12.10
2018-12-07T10:32:36.538Z,12.10
2018-12-07T10:35:05.916Z,12.13
2018-12-07T10:37:33.997Z,12.19
2018-12-07T10:40:02.100Z,12.16
2018-12-07T10:42:30.342Z,12.10
2018-12-07T10:44:58.421Z,12.13
2018-12-07T10:47:26.489Z,12.09
2018-12-07T10:49:54.569Z,12.11
2018-12-07T10:52:22.746Z,12.14
2018-12-07T10:54:50.848Z,12.09
2018-12-07T10:57:18.913Z,12.18
2018-12-07T10:59:47.089Z,12.23
2018-12-07T11:02:20.548Z,12.17
2018-12-07T11:04:54.082Z,12.22
2018-12-07T11:07:27.549Z,12.15
2018-12-07T11:10:01.108Z,12.17
2018-12-07T11:12:34.620Z,12.17
2018-12-07T11:15:08.186Z,12.19
2018-12-07T11:17:41.642Z,12.09
2018-12-07T11:20:15.201Z,12.14
2018-12-07T11:22:48.574Z,12.10
2018-12-07T11:25:21.922Z,12.08
2018-12-07T11:27:55.462Z,12.12
2018-12-07T11:30:30.794Z,12.14
2018-12-07T11:33:04.861Z,12.10
2018-12-07T11:35:36.590Z,12.10
2018-12-07T11:38:04.826Z,12.03
2018-12-07T11:40:33.014Z,12.14
2018-12-07T11:45:35.697Z,12.08
2018-12-07T11:48:03.854Z,12.05
2018-12-07T11:50:31.929Z,12.03
2018-12-07T11:53:00.026Z,12.06
2018-12-07T11:55:28.117Z,12.11
2018-12-07T11:57:56.187Z,12.12
2018-12-07T12:00:24.354Z,12.01
2018-12-07T12:02:52.497Z,12.10
2018-12-07T12:05:20.769Z,12.02
2018-12-07T12:07:48.838Z,12.05
2018-12-07T12:10:16.934Z,12.13
2018-12-07T12:12:47.959Z,12.07
2018-12-07T12:15:16.039Z,12.13
2018-12-07T12:17:44.102Z,12.06
2018-12-07T12:20:12.422Z,12.09
2018-12-07T12:22:40.492Z,12.06
2018-12-07T12:25:08.693Z,12.10
2018-12-07T12:27:36.841Z,12.10
2018-12-07T12:30:05.429Z,11.89
2018-12-07T12:32:33.501Z,11.93
2018-12-07T12:35:01.586Z,11.75
2018-12-07T12:37:36.303Z,11.73
2018-12-07T12:40:04.762Z,11.67
2018-12-07T12:42:32.824Z,11.66
2018-12-07T12:45:00.897Z,11.74
2018-12-07T12:47:28.974Z,11.66
2018-12-07T12:49:57.059Z,11.69
2018-12-07T12:52:25.227Z,11.62
2018-12-07T12:54:53.310Z,11.66
2018-12-07T12:57:21.383Z,11.69
2018-12-07T12:59:49.466Z,11.57
2018-12-07T13:02:17.614Z,11.62
2018-12-07T13:04:45.789Z,11.72
2018-12-07T13:07:13.959Z,11.78
2018-12-07T13:09:42.077Z,11.71
2018-12-07T13:12:10.243Z,11.74
2018-12-07T13:14:38.326Z,11.75
2018-12-07T13:17:06.482Z,11.76
2018-12-07T13:19:34.563Z,11.69
2018-12-07T13:22:02.805Z,11.63
2018-12-07T13:24:30.918Z,11.65
2018-12-07T13:26:59.073Z,11.59
2018-12-07T13:29:27.221Z,11.54
2018-12-07T13:31:55.838Z,11.53
2018-12-07T13:34:23.915Z,11.51
2018-12-07T13:36:52.095Z,11.51
2018-12-07T13:39:20.229Z,11.51
2018-12-07T13:41:50.502Z,11.49
2018-12-07T13:44:18.833Z,11.51
2018-12-07T13:46:47.717Z,11.50
2018-12-07T13:49:16.046Z,11.48
2018-12-07T13:51:44.239Z,11.52
2018-12-07T13:54:12.612Z,11.54
2018-12-07T13:56:41.029Z,11.49
2018-12-07T13:59:09.329Z,11.56
2018-12-07T14:01:37.571Z,11.54
2018-12-07T14:04:05.899Z,11.52
2018-12-07T14:06:34.142Z,11.57
2018-12-07T14:09:02.483Z,11.65
2018-12-07T14:11:30.702Z,11.60
2018-12-07T14:13:59.085Z,11.62
2018-12-07T14:16:27.361Z,11.54
2018-12-07T14:18:55.469Z,11.56
2018-12-07T14:21:23.750Z,11.57
2018-12-07T14:23:52.028Z,11.60
2018-12-07T14:26:20.342Z,11.59
2018-12-07T14:28:48.670Z,11.57
2018-12-07T14:31:16.888Z,11.56
2018-12-07T14:33:45.141Z,11.63
2018-12-07T14:36:13.324Z,11.66
2018-12-07T14:38:41.854Z,11.68
2018-12-07T14:41:10.234Z,11.62
2018-12-07T14:43:38.491Z,11.66
2018-12-07T14:46:06.741Z,11.68
2018-12-07T14:48:34.959Z,11.60
2018-12-07T14:51:03.149Z,11.71
2018-12-07T14:53:31.271Z,11.59
2018-12-07T14:55:59.428Z,11.59
2018-12-07T14:58:27.566Z,11.65
2018-12-07T15:00:55.681Z,11.63
2018-12-07T15:03:23.846Z,11.62
2018-12-07T15:05:52.077Z,11.63
2018-12-07T15:08:20.498Z,11.69
2018-12-07T15:10:48.934Z,11.63
2018-12-07T15:13:17.364Z,11.59
2018-12-07T15:15:45.541Z,11.57
2018-12-07T15:18:13.869Z,11.61
2018-12-07T15:20:42.025Z,11.56
2018-12-07T15:23:10.286Z,11.43
2018-12-07T15:25:38.459Z,11.32
2018-12-07T15:28:06.750Z,11.31
2018-12-07T15:30:34.993Z,11.06
2018-12-07T15:33:03.292Z,11.06
2018-12-07T15:35:31.592Z,11.09
2018-12-07T15:38:00.059Z,11.13
2018-12-07T15:40:28.425Z,11.07
2018-12-07T15:42:56.695Z,11.08
2018-12-07T15:45:25.082Z,10.98
2018-12-07T15:47:53.264Z,11.08
2018-12-07T15:50:25.003Z,11.12
2018-12-07T15:52:51.795Z,11.15
2018-12-07T15:55:20.013Z,11.10
2018-12-07T15:57:48.234Z,11.13
2018-12-07T16:00:16.450Z,11.09
2018-12-07T16:02:44.923Z,11.00
2018-12-07T16:05:13.117Z,11.09
2018-12-07T16:07:41.254Z,11.04
2018-12-07T16:10:09.636Z,10.95
2018-12-07T16:12:38.000Z,10.88
2018-12-07T16:15:06.492Z,10.92
2018-12-07T16:17:34.736Z,10.91
2018-12-07T16:20:03.020Z,10.88
2018-12-07T16:22:31.464Z,10.92
2018-12-07T16:24:59.909Z,10.91
2018-12-07T16:27:28.190Z,10.97
2018-12-07T16:29:56.572Z,11.03
2018-12-07T16:32:25.013Z,11.02
2018-12-07T16:34:53.634Z,11.05
2018-12-07T16:37:22.074Z,11.16
2018-12-07T16:39:50.467Z,11.12
2018-12-07T16:42:18.653Z,11.13
2018-12-07T16:44:46.899Z,11.17
2018-12-07T16:47:15.343Z,11.10
2018-12-07T16:49:43.473Z,11.17
2018-12-07T16:52:11.866Z,11.14
2018-12-07T16:54:40.202Z,11.15
2018-12-07T16:57:08.565Z,11.09
2018-12-07T16:59:36.985Z,11.06
2018-12-07T17:02:05.207Z,11.09
2018-12-07T17:04:33.566Z,11.04
2018-12-07T17:07:01.869Z,11.00
2018-12-07T17:09:30.189Z,11.01
2018-12-07T17:11:58.300Z,11.02
2018-12-07T17:14:26.699Z,11.03
2018-12-07T17:16:55.031Z,10.98
2018-12-07T17:19:23.179Z,10.92
2018-12-07T17:21:51.417Z,10.94
2018-12-07T17:24:19.692Z,10.90
2018-12-07T17:26:48.115Z,10.83
2018-12-07T17:29:16.469Z,10.82
2018-12-07T17:31:44.766Z,10.84
2018-12-07T17:34:13.108Z,10.81
2018-12-07T17:36:41.473Z,10.77
2018-12-07T17:39:09.582Z,10.78
2018-12-07T17:41:37.719Z,10.74
2018-12-07T17:44:06.087Z,10.65
2018-12-07T17:46:34.639Z,10.65
2018-12-07T17:49:02.932Z,10.62
2018-12-07T17:51:31.130Z,10.61
2018-12-07T17:53:59.560Z,10.72
2018-12-07T17:56:28.026Z,10.71
2018-12-07T17:58:56.293Z,10.69
2018-12-07T18:01:24.695Z,10.65
2018-12-07T18:03:52.780Z,10.64
2018-12-07T18:06:20.885Z,10.64
2018-12-07T18:08:49.319Z,10.62
2018-12-07T18:11:17.637Z,10.60
2018-12-07T18:13:47.962Z,10.68
2018-12-07T18:16:16.196Z,10.59
2018-12-07T18:18:44.313Z,10.52
2018-12-07T18:21:12.428Z,10.49
2018-12-07T18:23:40.748Z,10.54
2018-12-07T18:26:09.040Z,10.48
2018-12-07T18:28:37.343Z,10.53
2018-12-07T18:31:05.750Z,10.49
2018-12-07T18:33:33.854Z,10.57
2018-12-07T18:36:02.153Z,10.55
2018-12-07T18:38:30.527Z,10.61
2018-12-07T18:40:58.729Z,10.55
2018-12-07T18:43:27.134Z,10.52
2018-12-07T18:45:55.496Z,10.49
2018-12-07T18:48:23.799Z,10.45
2018-12-07T18:50:51.987Z,10.52
2018-12-07T18:53:20.376Z,10.40
2018-12-07T18:55:49.039Z,10.47
2018-12-07T18:58:17.380Z,10.44
2018-12-07T19:00:45.742Z,10.39
2018-12-07T19:03:14.052Z,10.41
2018-12-07T19:05:42.362Z,10.40
2018-12-07T19:08:10.763Z,10.42
2018-12-07T19:10:39.091Z,10.44
2018-12-07T19:13:07.830Z,10.54
2018-12-07T19:15:36.017Z,10.54
2018-12-07T19:18:06.300Z,10.47
2018-12-07T19:20:34.670Z,10.49
2018-12-07T19:26:14.157Z,10.50
2018-12-07T19:31:59.236Z,10.56
2018-12-07T19:34:29.439Z,10.56
2018-12-07T19:37:02.878Z,10.62
2018-12-07T19:39:34.136Z,10.75
2018-12-07T19:42:05.868Z,10.78
2018-12-07T19:44:36.770Z,10.80
2018-12-07T19:47:13.582Z,10.93
2018-12-07T19:49:44.620Z,10.88
2018-12-07T19:52:16.202Z,10.83
2018-12-07T19:54:50.749Z,10.76
2018-12-07T19:57:27.148Z,10.76
2018-12-07T20:00:14.049Z,10.79
2018-12-07T20:02:46.812Z,10.79
2018-12-07T20:05:18.106Z,10.74
2018-12-07T20:07:47.674Z,10.73
2018-12-07T20:10:18.790Z,10.67
2018-12-07T20:12:52.172Z,10.55
2018-12-07T20:15:22.847Z,10.50
2018-12-07T20:18:16.210Z,10.40
2018-12-07T20:20:55.594Z,10.39
2018-12-07T20:23:27.039Z,10.32
2018-12-07T20:26:00.190Z,10.30
2018-12-07T20:28:38.476Z,10.27
2018-12-07T20:31:13.707Z,10.28
2018-12-07T20:33:49.201Z,10.23
2018-12-07T20:36:20.477Z,10.19
2018-12-07T20:38:50.032Z,10.15
2018-12-07T20:41:20.276Z,10.16
2018-12-07T20:43:51.497Z,10.04
2018-12-07T20:48:58.507Z,9.98
2018-12-07T20:51:49.069Z,9.92
2018-12-07T20:54:20.622Z,9.93
2018-12-07T20:56:55.552Z,9.88
2018-12-07T20:59:35.065Z,9.71
2018-12-07T21:02:06.062Z,9.69
2018-12-07T21:04:44.769Z,9.67
2018-12-07T21:07:38.500Z,9.65
2018-12-07T21:11:22.757Z,9.59
2018-12-07T21:14:21.005Z,9.55
2018-12-07T21:17:08.086Z,9.63
2018-12-07T21:19:43.878Z,9.57
2018-12-07T21:22:24.626Z,9.53
2018-12-07T21:24:57.341Z,9.53
2018-12-07T21:27:37.774Z,9.43
2018-12-07T21:30:50.281Z,9.34
2018-12-07T21:33:28.282Z,9.26
2018-12-07T21:36:34.736Z,9.23
2018-12-07T21:39:11.736Z,9.17
2018-12-07T21:41:47.983Z,9.01
2018-12-07T21:44:27.603Z,8.99
2018-12-07T21:47:04.950Z,9.01
2018-12-07T21:49:43.780Z,8.85
2018-12-07T21:52:26.530Z,8.82
2018-12-07T21:58:44.793Z,8.64
2018-12-07T22:01:22.477Z,8.57
2018-12-07T22:03:54.586Z,8.50
2018-12-07T22:06:30.009Z,8.53
2018-12-07T22:09:11.747Z,8.45
2018-12-07T22:11:43.634Z,8.38
2018-12-07T22:17:14.909Z,8.20
2018-12-07T22:19:46.473Z,8.07
2018-12-07T22:22:16.442Z,8.10
2018-12-07T22:24:53.267Z,8.02
2018-12-07T22:27:25.801Z,7.90
2018-12-07T22:29:58.573Z,7.94
2018-12-07T22:32:32.269Z,7.92
2018-12-07T22:35:10.494Z,7.93
2018-12-07T22:37:40.957Z,7.96
2018-12-07T22:40:16.091Z,7.91
2018-12-07T22:42:49.499Z,7.91
2018-12-07T22:45:27.512Z,7.92
2018-12-07T22:48:02.619Z,7.97
2018-12-07T22:50:32.854Z,7.91
2018-12-07T22:53:03.414Z,7.90
2018-12-07T22:55:33.045Z,7.93
2018-12-07T22:58:03.728Z,7.89
2018-12-07T23:00:43.572Z,7.89
2018-12-07T23:03:16.054Z,7.94
2018-12-07T23:05:49.808Z,7.92
2018-12-07T23:08:24.355Z,7.95
2018-12-07T23:10:55.928Z,7.92
2018-12-07T23:13:53.993Z,7.92
2018-12-07T23:16:27.456Z,7.88
2018-12-07T23:19:07.762Z,7.84
2018-12-07T23:21:49.224Z,7.85
2018-12-07T23:24:22.992Z,7.93
2018-12-07T23:26:52.977Z,7.95
2018-12-07T23:29:31.198Z,7.98
2018-12-07T23:31:59.964Z,8.01
2018-12-07T23:34:29.305Z,8.07
2018-12-07T23:36:59.642Z,8.07
2018-12-07T23:39:34.267Z,7.99
2018-12-07T23:42:06.627Z,8.02
2018-12-07T23:44:41.247Z,8.01
2018-12-07T23:47:13.965Z,7.93
2018-12-07T23:49:48.643Z,7.91
2018-12-07T23:52:21.335Z,7.89
2018-12-07T23:54:52.411Z,7.85
2018-12-07T23:57:21.589Z,7.84
2018-12-07T23:59:55.884Z,7.85
